Time;durP1;ratioP1;P1;durP2;ratioP2;P2;SDS_P1;SDS_P2;PMS_P1;PMS_P2;Temp;Humidity;BMP_temperature;BMP_pressure;BME280_temperature;BME280_humidity;BME280_pressure;Samples;Min_cycle;Max_cycle;Signal;HPM_P1;HPM_P2
2023/07/30 00:01:33;;;;;;;1.90;1.80;;;;;;;;;;5045044;28;20048;-79
2023/07/30 00:04:01;;;;;;;2.10;1.80;;;;;;;;;;5037385;28;20103;-79
2023/07/30 00:06:29;;;;;;;5.03;1.90;;;;;;;;;;5038820;28;20055;-80
2023/07/30 00:08:56;;;;;;;5.70;1.98;;;;;;;;;;5044795;28;20060;-78
2023/07/30 00:11:24;;;;;;;2.15;1.90;;;;;;;;;;5027243;28;20048;-76
2023/07/30 00:13:52;;;;;;;1.83;1.63;;;;;;;;;;5050362;28;20067;-77
2023/07/30 00:16:19;;;;;;;1.90;1.80;;;;;;;;;;5049388;28;20566;-79
2023/07/30 00:18:46;;;;;;;4.00;1.67;;;;;;;;;;5041012;28;20521;-76
2023/07/30 00:21:14;;;;;;;2.40;1.73;;;;;;;;;;5048752;28;20060;-76
2023/07/30 00:23:41;;;;;;;1.80;1.70;;;;;;;;;;5023176;28;20087;-77
2023/07/30 00:26:09;;;;;;;3.67;1.90;;;;;;;;;;5048547;28;20339;-77
2023/07/30 00:28:36;;;;;;;2.00;1.90;;;;;;;;;;5048402;28;20049;-77
2023/07/30 00:31:04;;;;;;;1.95;1.85;;;;;;;;;;5049489;28;20322;-77
2023/07/30 00:33:31;;;;;;;2.17;1.80;;;;;;;;;;5024903;28;20053;-78
2023/07/30 00:35:59;;;;;;;1.83;1.73;;;;;;;;;;5042362;28;20056;-77
2023/07/30 00:38:27;;;;;;;2.47;1.77;;;;;;;;;;5011930;28;20042;-76
2023/07/30 00:40:56;;;;;;;2.35;1.80;;;;;;;;;;5023845;28;20438;-77
2023/07/30 00:43:23;;;;;;;1.80;1.70;;;;;;;;;;5024747;28;20056;-79
2023/07/30 00:45:51;;;;;;;1.75;1.65;;;;;;;;;;5048409;28;20164;-76
2023/07/30 00:48:18;;;;;;;1.90;1.80;;;;;;;;;;5041849;28;20053;-78
2023/07/30 00:50:45;;;;;;;2.30;1.67;;;;;;;;;;5031329;28;20419;-77
2023/07/30 00:53:15;;;;;;;2.58;1.90;;;;;;;;;;5029606;28;20048;-77
2023/07/30 00:55:43;;;;;;;2.28;1.70;;;;;;;;;;5030005;28;20045;-77
2023/07/30 00:58:10;;;;;;;1.90;1.80;;;;;;;;;;5045555;28;20388;-77
2023/07/30 01:00:39;;;;;;;1.77;1.67;;;;;;;;;;5030107;28;20044;-79
2023/07/30 01:03:06;;;;;;;1.77;1.67;;;;;;;;;;5048701;28;20355;-77
2023/07/30 01:05:34;;;;;;;4.38;1.60;;;;;;;;;;5021738;28;20052;-78
2023/07/30 01:08:01;;;;;;;1.60;1.50;;;;;;;;;;5030348;28;20041;-77
2023/07/30 01:10:30;;;;;;;2.03;1.92;;;;;;;;;;5022434;28;20040;-77
2023/07/30 01:13:00;;;;;;;2.35;1.55;;;;;;;;;;5034537;28;20919;-77
2023/07/30 01:15:27;;;;;;;1.83;1.73;;;;;;;;;;5011047;28;20045;-77
2023/07/30 01:17:55;;;;;;;1.65;1.55;;;;;;;;;;5047417;28;20132;-78
2023/07/30 01:20:22;;;;;;;3.75;1.85;;;;;;;;;;5030858;28;20072;-76
2023/07/30 01:22:50;;;;;;;2.85;2.10;;;;;;;;;;5048784;28;20059;-77
2023/07/30 01:25:17;;;;;;;1.70;1.60;;;;;;;;;;5030252;28;20049;-78
2023/07/30 01:27:48;;;;;;;2.00;1.80;;;;;;;;;;5028700;28;20162;-77
2023/07/30 01:30:22;;;;;;;2.38;2.17;;;;;;;;;;5046457;28;20053;-77
2023/07/30 01:32:50;;;;;;;2.92;2.00;;;;;;;;;;5029125;28;20051;-76
2023/07/30 01:35:19;;;;;;;4.28;2.03;;;;;;;;;;5043456;28;20538;-79
2023/07/30 01:37:47;;;;;;;5.93;1.90;;;;;;;;;;5046178;28;20427;-78
2023/07/30 01:40:15;;;;;;;5.38;2.00;;;;;;;;;;5022114;28;20045;-78
2023/07/30 01:42:42;;;;;;;2.90;2.03;;;;;;;;;;5043928;28;20118;-78
2023/07/30 01:45:10;;;;;;;4.15;1.90;;;;;;;;;;5041363;28;20065;-77
2023/07/30 01:47:37;;;;;;;3.28;1.73;;;;;;;;;;5019057;28;20045;-78
2023/07/30 01:50:05;;;;;;;2.00;1.80;;;;;;;;;;5043874;28;20349;-79
2023/07/30 01:52:32;;;;;;;2.25;2.08;;;;;;;;;;5028475;28;20045;-77
2023/07/30 01:55:00;;;;;;;4.32;1.70;;;;;;;;;;5038835;28;20049;-78
2023/07/30 01:57:29;;;;;;;2.28;2.08;;;;;;;;;;5020521;28;20458;-77
2023/07/30 01:59:56;;;;;;;4.50;1.60;;;;;;;;;;5045736;28;20392;-77
2023/07/30 02:02:23;;;;;;;2.17;1.75;;;;;;;;;;5030263;28;20060;-80
2023/07/30 02:04:51;;;;;;;3.03;1.70;;;;;;;;;;5043526;28;20050;-78
2023/07/30 02:07:18;;;;;;;2.60;1.80;;;;;;;;;;5042313;28;20159;-78
2023/07/30 02:09:46;;;;;;;2.90;1.85;;;;;;;;;;5022846;28;20061;-79
2023/07/30 02:12:13;;;;;;;1.58;1.48;;;;;;;;;;5027800;28;20048;-78
2023/07/30 02:14:40;;;;;;;1.95;1.60;;;;;;;;;;5029901;28;20102;-78
2023/07/30 02:17:08;;;;;;;1.80;1.60;;;;;;;;;;5027480;28;20045;-78
2023/07/30 02:19:35;;;;;;;2.42;1.58;;;;;;;;;;5027604;28;20095;-78
2023/07/30 02:22:03;;;;;;;5.70;1.83;;;;;;;;;;5046550;28;20055;-78
2023/07/30 02:24:30;;;;;;;7.53;1.98;;;;;;;;;;5028083;28;20392;-78
2023/07/30 02:26:58;;;;;;;7.35;2.40;;;;;;;;;;5023564;28;20038;-79
2023/07/30 02:29:25;;;;;;;6.15;2.60;;;;;;;;;;5037446;28;20052;-80
2023/07/30 02:31:53;;;;;;;6.80;2.40;;;;;;;;;;5044470;28;20482;-80
2023/07/30 02:34:20;;;;;;;2.15;2.00;;;;;;;;;;5026740;28;20041;-80
2023/07/30 02:36:48;;;;;;;2.80;2.53;;;;;;;;;;5048092;28;20045;-80
2023/07/30 02:39:16;;;;;;;2.88;2.10;;;;;;;;;;5049143;28;20045;-80
2023/07/30 02:41:43;;;;;;;4.18;2.30;;;;;;;;;;5040020;28;20411;-80
2023/07/30 02:44:11;;;;;;;8.98;2.67;;;;;;;;;;5031321;28;20053;-80
2023/07/30 02:46:38;;;;;;;4.80;2.15;;;;;;;;;;5047267;28;20052;-79
2023/07/30 02:49:06;;;;;;;4.22;2.67;;;;;;;;;;5046197;28;20049;-79
2023/07/30 02:51:33;;;;;;;4.13;2.70;;;;;;;;;;5030823;28;20041;-80
2023/07/30 02:54:04;;;;;;;4.70;2.45;;;;;;;;;;5021895;28;20064;-79
2023/07/30 02:56:31;;;;;;;4.20;2.63;;;;;;;;;;5029035;28;20059;-79
2023/07/30 02:58:59;;;;;;;6.40;3.03;;;;;;;;;;5037045;28;20049;-79
2023/07/30 03:01:26;;;;;;;2.65;2.45;;;;;;;;;;5019672;28;20053;-79
2023/07/30 03:03:54;;;;;;;5.13;2.53;;;;;;;;;;5040565;28;20127;-79
2023/07/30 03:06:21;;;;;;;3.28;2.70;;;;;;;;;;5022564;28;20052;-79
2023/07/30 03:08:49;;;;;;;6.68;2.88;;;;;;;;;;5040422;28;20052;-79
2023/07/30 03:11:16;;;;;;;3.92;2.53;;;;;;;;;;5033386;28;20057;-79
2023/07/30 03:13:43;;;;;;;2.80;2.60;;;;;;;;;;5034112;28;20119;-79
2023/07/30 03:16:11;;;;;;;4.35;2.80;;;;;;;;;;5019865;28;20438;-79
2023/07/30 03:18:38;;;;;;;3.58;2.85;;;;;;;;;;5043234;28;20077;-79
2023/07/30 03:21:06;;;;;;;3.50;2.50;;;;;;;;;;5041568;28;20064;-78
2023/07/30 03:23:33;;;;;;;3.60;2.92;;;;;;;;;;5033534;28;20533;-78
2023/07/30 03:26:01;;;;;;;4.90;2.85;;;;;;;;;;5044780;28;20057;-78
2023/07/30 03:28:29;;;;;;;3.72;2.70;;;;;;;;;;5025127;28;20103;-79
2023/07/30 03:30:56;;;;;;;6.63;2.92;;;;;;;;;;5026644;28;20529;-79
2023/07/30 03:33:24;;;;;;;3.45;2.90;;;;;;;;;;5027205;28;20362;-79
2023/07/30 03:35:51;;;;;;;3.75;2.70;;;;;;;;;;5041758;28;20495;-79
2023/07/30 03:38:19;;;;;;;2.72;2.53;;;;;;;;;;5037634;28;20084;-79
2023/07/30 03:40:46;;;;;;;3.00;2.80;;;;;;;;;;5028296;28;20823;-79
2023/07/30 03:43:13;;;;;;;2.75;2.55;;;;;;;;;;5021253;28;20056;-78
2023/07/30 03:45:41;;;;;;;3.08;2.65;;;;;;;;;;5110437;23;20060;-77
2023/07/30 03:48:09;;;;;;;3.40;2.75;;;;;;;;;;5048679;28;20526;-77
2023/07/30 03:50:37;;;;;;;8.48;3.30;;;;;;;;;;5051995;28;20055;-77
2023/07/30 03:53:14;;;;;;;3.72;3.05;;;;;;;;;;5049607;28;20055;-78
2023/07/30 03:55:54;;;;;;;3.55;3.03;;;;;;;;;;5045455;28;20045;-80
2023/07/30 03:58:21;;;;;;;7.10;2.70;;;;;;;;;;5030869;28;20041;-77
2023/07/30 04:00:49;;;;;;;3.28;2.92;;;;;;;;;;5048717;28;20497;-77
2023/07/30 04:03:16;;;;;;;2.50;2.30;;;;;;;;;;5046218;28;20048;-77
2023/07/30 04:05:44;;;;;;;2.45;2.35;;;;;;;;;;5030480;28;20049;-77
2023/07/30 04:08:11;;;;;;;4.65;3.10;;;;;;;;;;5030499;28;20137;-76
2023/07/30 04:10:39;;;;;;;2.88;2.67;;;;;;;;;;5047464;28;20076;-76
2023/07/30 04:13:07;;;;;;;2.85;2.30;;;;;;;;;;5028092;28;20043;-77
2023/07/30 04:15:35;;;;;;;2.95;2.65;;;;;;;;;;5048200;28;20305;-76
2023/07/30 04:18:02;;;;;;;3.45;2.67;;;;;;;;;;5047182;28;20037;-77
2023/07/30 04:20:30;;;;;;;3.42;2.50;;;;;;;;;;5048811;28;20045;-77
2023/07/30 04:22:58;;;;;;;3.00;2.80;;;;;;;;;;5029481;28;20056;-77
2023/07/30 04:25:26;;;;;;;2.97;2.67;;;;;;;;;;5030629;28;20049;-77
2023/07/30 04:27:53;;;;;;;2.88;2.65;;;;;;;;;;5029356;28;20583;-78
2023/07/30 04:30:21;;;;;;;2.70;2.50;;;;;;;;;;5029838;28;20049;-78
2023/07/30 04:32:48;;;;;;;3.47;3.00;;;;;;;;;;5029483;28;20057;-78
2023/07/30 04:35:16;;;;;;;5.35;3.13;;;;;;;;;;5028295;28;20056;-78
2023/07/30 04:37:43;;;;;;;3.55;3.22;;;;;;;;;;5046842;28;20056;-78
2023/07/30 04:40:11;;;;;;;3.17;2.88;;;;;;;;;;5029401;28;20308;-78
2023/07/30 04:42:38;;;;;;;2.90;2.50;;;;;;;;;;5046726;28;20067;-78
2023/07/30 04:45:06;;;;;;;2.70;2.50;;;;;;;;;;5028150;28;20059;-78
2023/07/30 04:47:36;;;;;;;4.57;2.67;;;;;;;;;;5028164;28;20402;-78
2023/07/30 04:50:04;;;;;;;6.53;2.97;;;;;;;;;;5028866;28;20502;-78
2023/07/30 04:52:31;;;;;;;3.22;2.92;;;;;;;;;;5047248;28;20079;-78
2023/07/30 04:54:59;;;;;;;4.60;3.17;;;;;;;;;;5027947;28;20076;-77
2023/07/30 04:57:26;;;;;;;4.65;3.25;;;;;;;;;;5047372;28;20049;-78
2023/07/30 04:59:54;;;;;;;4.03;3.05;;;;;;;;;;5045895;28;20053;-77
2023/07/30 05:02:21;;;;;;;3.85;2.90;;;;;;;;;;5052517;28;20049;-77
2023/07/30 05:04:49;;;;;;;5.75;2.70;;;;;;;;;;5051325;28;20525;-77
2023/07/30 05:07:16;;;;;;;4.10;2.97;;;;;;;;;;5050957;28;20052;-77
2023/07/30 05:09:43;;;;;;;5.18;2.90;;;;;;;;;;5051654;28;20053;-77
2023/07/30 05:12:11;;;;;;;5.65;3.08;;;;;;;;;;5030239;28;20521;-77
2023/07/30 05:14:38;;;;;;;3.00;2.80;;;;;;;;;;5030941;28;20045;-77
2023/07/30 05:17:06;;;;;;;3.15;2.80;;;;;;;;;;5046468;28;20106;-77
2023/07/30 05:19:33;;;;;;;5.28;2.85;;;;;;;;;;5047206;28;20049;-77
2023/07/30 05:22:01;;;;;;;2.80;2.60;;;;;;;;;;5047163;28;20041;-77
2023/07/30 05:24:29;;;;;;;3.35;2.90;;;;;;;;;;5047599;28;20071;-77
2023/07/30 05:26:56;;;;;;;2.42;2.22;;;;;;;;;;5028903;28;20415;-77
2023/07/30 05:29:23;;;;;;;2.28;2.10;;;;;;;;;;5045757;28;20045;-77
2023/07/30 05:31:51;;;;;;;2.13;1.80;;;;;;;;;;5046843;28;20140;-77
2023/07/30 05:34:18;;;;;;;2.33;2.13;;;;;;;;;;5047415;28;20146;-77
2023/07/30 05:36:46;;;;;;;2.28;2.08;;;;;;;;;;5044129;28;20116;-76
2023/07/30 05:39:13;;;;;;;1.98;1.90;;;;;;;;;;5045574;28;20037;-76
2023/07/30 05:41:41;;;;;;;2.17;2.00;;;;;;;;;;5040718;28;20052;-77
2023/07/30 05:44:08;;;;;;;1.80;1.70;;;;;;;;;;5042959;28;20144;-77
2023/07/30 05:46:35;;;;;;;3.75;1.80;;;;;;;;;;5039691;28;20486;-76
2023/07/30 05:49:03;;;;;;;2.05;1.58;;;;;;;;;;5044015;28;20059;-76
2023/07/30 05:51:30;;;;;;;2.35;1.77;;;;;;;;;;5043312;28;20069;-76
2023/07/30 05:53:58;;;;;;;1.60;1.50;;;;;;;;;;5025864;28;20041;-76
2023/07/30 05:56:25;;;;;;;1.65;1.55;;;;;;;;;;5039179;28;20442;-76
2023/07/30 05:58:53;;;;;;;1.48;1.48;;;;;;;;;;5048550;28;20105;-76
2023/07/30 06:01:21;;;;;;;1.50;1.40;;;;;;;;;;5045173;28;20044;-76
2023/07/30 06:03:48;;;;;;;1.80;1.70;;;;;;;;;;5039376;28;20065;-76
2023/07/30 06:06:17;;;;;;;2.55;1.60;;;;;;;;;;5025900;28;20198;-77
2023/07/30 06:08:44;;;;;;;1.33;1.30;;;;;;;;;;5047411;28;20037;-76
2023/07/30 06:11:12;;;;;;;2.75;1.63;;;;;;;;;;5027171;28;20440;-76
2023/07/30 06:13:46;;;;;;;1.60;1.50;;;;;;;;;;5031419;28;20124;-76
2023/07/30 06:16:19;;;;;;;1.88;1.77;;;;;;;;;;5041147;28;20148;-77
2023/07/30 06:18:48;;;;;;;1.60;1.43;;;;;;;;;;5038886;28;20040;-77
2023/07/30 06:21:15;;;;;;;1.70;1.60;;;;;;;;;;5026939;28;20307;-78
2023/07/30 06:23:42;;;;;;;1.80;1.30;;;;;;;;;;5028353;28;20177;-79
2023/07/30 06:26:13;;;;;;;1.27;1.15;;;;;;;;;;5028009;28;20135;-76
2023/07/30 06:28:40;;;;;;;1.58;1.48;;;;;;;;;;5044851;28;20059;-77
2023/07/30 06:31:08;;;;;;;1.30;1.30;;;;;;;;;;5027471;28;20300;-77
2023/07/30 06:33:35;;;;;;;5.68;1.92;;;;;;;;;;5045759;28;20494;-78
2023/07/30 06:36:03;;;;;;;1.45;1.35;;;;;;;;;;5046730;28;20076;-77
2023/07/30 06:38:31;;;;;;;1.85;1.40;;;;;;;;;;5044766;28;20049;-79
2023/07/30 06:40:58;;;;;;;1.30;1.25;;;;;;;;;;5044054;28;20459;-78
2023/07/30 06:43:26;;;;;;;1.50;1.40;;;;;;;;;;5044590;28;20527;-77
2023/07/30 06:45:54;;;;;;;1.35;1.25;;;;;;;;;;5044406;28;20735;-77
2023/07/30 06:48:23;;;;;;;1.55;1.45;;;;;;;;;;5026088;28;20041;-77
2023/07/30 06:50:50;;;;;;;1.30;1.20;;;;;;;;;;5025226;28;20049;-77
2023/07/30 06:53:18;;;;;;;1.92;1.40;;;;;;;;;;5039236;28;20083;-77
2023/07/30 06:55:45;;;;;;;1.00;1.00;;;;;;;;;;5043762;28;20127;-77
2023/07/30 06:58:13;;;;;;;1.95;1.20;;;;;;;;;;5044415;28;20461;-77
2023/07/30 07:00:41;;;;;;;1.33;1.30;;;;;;;;;;5045472;28;20049;-80
2023/07/30 07:03:08;;;;;;;1.27;1.27;;;;;;;;;;5046473;28;20061;-77
2023/07/30 07:05:36;;;;;;;1.50;1.40;;;;;;;;;;5046783;28;20434;-79
2023/07/30 07:08:03;;;;;;;1.10;1.10;;;;;;;;;;5045766;28;20522;-79
2023/07/30 07:10:31;;;;;;;1.92;1.27;;;;;;;;;;5046077;28;20048;-77
2023/07/30 07:12:58;;;;;;;1.00;1.00;;;;;;;;;;5046420;28;20060;-80
2023/07/30 07:15:26;;;;;;;3.22;1.80;;;;;;;;;;5044568;28;20529;-78
2023/07/30 07:17:56;;;;;;;4.43;1.48;;;;;;;;;;5045295;28;20049;-77
2023/07/30 07:20:24;;;;;;;1.38;1.30;;;;;;;;;;5045368;28;20045;-79
2023/07/30 07:22:51;;;;;;;1.40;1.33;;;;;;;;;;5042781;28;20045;-76
2023/07/30 07:25:20;;;;;;;1.38;1.27;;;;;;;;;;5044212;28;20128;-78
2023/07/30 07:27:48;;;;;;;1.20;1.20;;;;;;;;;;5044907;28;20403;-77
2023/07/30 07:30:18;;;;;;;1.55;1.45;;;;;;;;;;5045437;28;20045;-76
2023/07/30 07:32:50;;;;;;;1.75;1.20;;;;;;;;;;5043669;28;20041;-76
2023/07/30 07:35:17;;;;;;;;;;;;;;;;;;5045349;28;20068;-78
2023/07/30 07:37:45;;;;;;;3.60;1.40;;;;;;;;;;5045737;28;20179;-76
2023/07/30 07:40:12;;;;;;;1.40;1.30;;;;;;;;;;5028364;28;20052;-76
2023/07/30 07:42:40;;;;;;;1.40;1.40;;;;;;;;;;5046048;28;20128;-78
2023/07/30 07:45:08;;;;;;;2.90;1.30;;;;;;;;;;5044609;28;20057;-76
2023/07/30 07:47:35;;;;;;;1.50;1.40;;;;;;;;;;5045025;28;20103;-78
2023/07/30 07:50:03;;;;;;;3.97;1.40;;;;;;;;;;5045122;28;20041;-76
2023/07/30 07:52:31;;;;;;;1.75;1.40;;;;;;;;;;5045260;28;20052;-76
2023/07/30 07:54:58;;;;;;;1.27;1.17;;;;;;;;;;5045538;28;20048;-78
2023/07/30 07:57:25;;;;;;;1.05;1.05;;;;;;;;;;5043493;28;20122;-76
2023/07/30 07:59:53;;;;;;;1.20;1.10;;;;;;;;;;5045707;28;20131;-77
2023/07/30 08:02:20;;;;;;;1.17;1.17;;;;;;;;;;5044506;28;20495;-78
2023/07/30 08:04:48;;;;;;;1.98;1.20;;;;;;;;;;5046842;28;20052;-76
2023/07/30 08:07:15;;;;;;;1.52;1.35;;;;;;;;;;5043846;28;20422;-77
2023/07/30 08:09:42;;;;;;;3.08;1.35;;;;;;;;;;5045660;28;20087;-76
2023/07/30 08:12:10;;;;;;;2.30;1.25;;;;;;;;;;5046011;28;20498;-76
2023/07/30 08:14:37;;;;;;;1.30;1.20;;;;;;;;;;5045815;28;20044;-77
2023/07/30 08:17:04;;;;;;;2.20;1.20;;;;;;;;;;5045511;28;20049;-77
2023/07/30 08:19:32;;;;;;;1.75;1.08;;;;;;;;;;5028303;28;20033;-76
2023/07/30 08:22:00;;;;;;;1.30;1.20;;;;;;;;;;5046135;28;20094;-77
2023/07/30 08:24:27;;;;;;;2.00;1.30;;;;;;;;;;5046275;28;20181;-76
2023/07/30 08:26:54;;;;;;;1.33;1.30;;;;;;;;;;5043184;28;20053;-76
2023/07/30 08:29:22;;;;;;;1.52;1.35;;;;;;;;;;5045535;28;20056;-77
2023/07/30 08:31:49;;;;;;;1.30;1.20;;;;;;;;;;5048220;28;20124;-77
2023/07/30 08:34:17;;;;;;;2.03;1.38;;;;;;;;;;5047468;28;20077;-77
2023/07/30 08:36:44;;;;;;;1.75;1.30;;;;;;;;;;5048289;28;20052;-77
2023/07/30 08:39:12;;;;;;;1.23;1.23;;;;;;;;;;5045651;28;20628;-77
2023/07/30 08:41:39;;;;;;;3.20;1.50;;;;;;;;;;5028264;28;20060;-77
2023/07/30 08:44:07;;;;;;;1.40;1.30;;;;;;;;;;5046072;28;20045;-77
2023/07/30 08:46:35;;;;;;;1.15;1.15;;;;;;;;;;5042596;28;20837;-77
2023/07/30 08:49:03;;;;;;;1.38;1.30;;;;;;;;;;5045351;28;20049;-78
2023/07/30 08:51:32;;;;;;;1.42;1.30;;;;;;;;;;5042813;28;20102;-77
2023/07/30 08:54:00;;;;;;;1.30;1.27;;;;;;;;;;5044073;28;20046;-78
2023/07/30 08:56:28;;;;;;;1.00;1.00;;;;;;;;;;5047169;28;20406;-78
2023/07/30 08:58:57;;;;;;;1.90;1.23;;;;;;;;;;5046820;28;20045;-78
2023/07/30 09:01:28;;;;;;;1.63;1.50;;;;;;;;;;5040755;28;20049;-77
2023/07/30 09:03:58;;;;;;;1.40;1.30;;;;;;;;;;5047461;28;20406;-79
2023/07/30 09:06:26;;;;;;;2.00;1.20;;;;;;;;;;5046668;28;20072;-77
2023/07/30 09:08:53;;;;;;;1.33;1.10;;;;;;;;;;5045318;28;20073;-77
2023/07/30 09:11:21;;;;;;;1.10;1.10;;;;;;;;;;5046109;28;20473;-77
2023/07/30 09:13:48;;;;;;;1.08;1.08;;;;;;;;;;5045039;28;20502;-77
2023/07/30 09:16:16;;;;;;;0.95;0.95;;;;;;;;;;5044643;28;20045;-77
2023/07/30 09:18:44;;;;;;;2.70;1.00;;;;;;;;;;5046780;28;20552;-77
2023/07/30 09:21:12;;;;;;;1.20;1.20;;;;;;;;;;5042800;28;20131;-77
2023/07/30 09:23:44;;;;;;;1.00;1.00;;;;;;;;;;5040212;28;20691;-76
2023/07/30 09:26:12;;;;;;;2.40;1.27;;;;;;;;;;5042970;28;20041;-77
2023/07/30 09:28:42;;;;;;;1.23;1.10;;;;;;;;;;5044258;28;20451;-78
2023/07/30 09:31:11;;;;;;;1.10;1.10;;;;;;;;;;5044419;28;20073;-77
2023/07/30 09:33:49;;;;;;;1.08;1.00;;;;;;;;;;5043922;28;20512;-78
2023/07/30 09:36:19;;;;;;;1.15;1.10;;;;;;;;;;5044107;28;20283;-77
2023/07/30 09:38:49;;;;;;;2.72;1.30;;;;;;;;;;5041219;28;20462;-77
2023/07/30 09:41:17;;;;;;;1.30;1.20;;;;;;;;;;5042867;28;20098;-77
2023/07/30 09:43:45;;;;;;;1.30;1.20;;;;;;;;;;5047572;28;21037;-77
2023/07/30 09:46:13;;;;;;;1.40;1.30;;;;;;;;;;5044556;28;20578;-78
2023/07/30 09:48:50;;;;;;;1.10;1.10;;;;;;;;;;5038111;28;20225;-78
2023/07/30 09:51:20;;;;;;;0.90;0.90;;;;;;;;;;5029603;28;20106;-78
2023/07/30 09:53:48;;;;;;;1.02;1.02;;;;;;;;;;5044148;28;20053;-77
2023/07/30 09:56:16;;;;;;;0.90;0.90;;;;;;;;;;5040772;28;20045;-78
2023/07/30 09:58:43;;;;;;;1.23;1.13;;;;;;;;;;5040895;28;20076;-78
2023/07/30 10:01:11;;;;;;;0.95;0.95;;;;;;;;;;5024775;28;20115;-78
2023/07/30 10:03:43;;;;;;;1.00;1.00;;;;;;;;;;5023508;28;20120;-78
2023/07/30 10:06:15;;;;;;;0.80;0.80;;;;;;;;;;5025470;28;20049;-78
2023/07/30 10:08:43;;;;;;;0.90;0.90;;;;;;;;;;5039333;28;20049;-78
2023/07/30 10:11:12;;;;;;;2.35;1.00;;;;;;;;;;5035734;28;20041;-78
2023/07/30 10:13:41;;;;;;;0.90;0.85;;;;;;;;;;5041736;28;20045;-78
2023/07/30 10:16:12;;;;;;;1.10;1.00;;;;;;;;;;5089107;22;20048;-78
2023/07/30 10:18:41;;;;;;;0.85;0.85;;;;;;;;;;5074535;28;20240;-76
2023/07/30 10:21:23;;;;;;;0.88;0.88;;;;;;;;;;5068763;28;20039;-76
2023/07/30 10:24:10;;;;;;;0.80;0.80;;;;;;;;;;5074204;28;20048;-77
2023/07/30 10:26:37;;;;;;;0.90;0.90;;;;;;;;;;5051455;28;20048;-77
2023/07/30 10:29:18;;;;;;;1.10;1.00;;;;;;;;;;5053774;28;20127;-76
2023/07/30 10:31:56;;;;;;;0.93;0.90;;;;;;;;;;5059890;28;20137;-76
2023/07/30 10:34:27;;;;;;;1.00;1.00;;;;;;;;;;5056330;28;20048;-76
2023/07/30 10:36:57;;;;;;;2.33;1.20;;;;;;;;;;5058477;28;20374;-76
2023/07/30 10:39:28;;;;;;;1.33;1.10;;;;;;;;;;5033774;28;20418;-76
2023/07/30 10:41:57;;;;;;;0.90;0.90;;;;;;;;;;5050955;28;20143;-76
2023/07/30 10:44:31;;;;;;;1.98;1.10;;;;;;;;;;5056583;28;20075;-76
2023/07/30 10:46:59;;;;;;;0.90;0.90;;;;;;;;;;5061400;28;20048;-76
2023/07/30 10:49:27;;;;;;;1.10;1.10;;;;;;;;;;5060388;28;20139;-76
2023/07/30 10:51:59;;;;;;;1.63;1.52;;;;;;;;;;5060611;28;20048;-76
2023/07/30 10:54:33;;;;;;;1.10;1.10;;;;;;;;;;5055201;28;20073;-76
2023/07/30 10:57:00;;;;;;;1.05;1.00;;;;;;;;;;5045356;28;20040;-75
2023/07/30 10:59:33;;;;;;;1.10;1.10;;;;;;;;;;5060888;28;20082;-76
2023/07/30 11:02:01;;;;;;;1.20;1.10;;;;;;;;;;5060894;28;20048;-76
2023/07/30 11:04:29;;;;;;;1.17;1.17;;;;;;;;;;5049589;28;20057;-75
2023/07/30 11:06:57;;;;;;;1.15;1.15;;;;;;;;;;5037057;28;20052;-76
2023/07/30 11:09:25;;;;;;;1.05;1.05;;;;;;;;;;5044145;28;20048;-76
2023/07/30 11:11:55;;;;;;;2.78;1.25;;;;;;;;;;5046549;28;20044;-75
2023/07/30 11:14:25;;;;;;;0.90;0.90;;;;;;;;;;5042033;28;20056;-75
2023/07/30 11:16:54;;;;;;;0.90;0.90;;;;;;;;;;5043990;28;20493;-75
2023/07/30 11:19:22;;;;;;;3.20;1.00;;;;;;;;;;5048461;28;20297;-76
2023/07/30 11:21:50;;;;;;;0.98;0.95;;;;;;;;;;5048358;28;20066;-76
2023/07/30 11:24:24;;;;;;;1.05;0.90;;;;;;;;;;5056772;28;20498;-76
2023/07/30 11:26:58;;;;;;;0.75;0.75;;;;;;;;;;5058930;28;20052;-76
2023/07/30 11:29:26;;;;;;;0.82;0.82;;;;;;;;;;5059615;28;20518;-76
2023/07/30 11:31:56;;;;;;;0.80;0.80;;;;;;;;;;5060604;28;20080;-76
2023/07/30 11:34:24;;;;;;;0.90;0.90;;;;;;;;;;5059948;28;20059;-76
2023/07/30 11:36:52;;;;;;;0.98;0.90;;;;;;;;;;5060069;28;20303;-76
2023/07/30 11:39:20;;;;;;;5.10;1.00;;;;;;;;;;5059113;28;20056;-76
2023/07/30 11:41:47;;;;;;;0.90;0.90;;;;;;;;;;5060004;28;20556;-76
2023/07/30 11:44:35;;;;;;;0.90;0.90;;;;;;;;;;5059661;28;20072;-76
2023/07/30 11:47:04;;;;;;;1.00;1.00;;;;;;;;;;5060078;28;20056;-76
2023/07/30 11:49:31;;;;;;;0.90;0.90;;;;;;;;;;5057877;28;20048;-76
2023/07/30 11:52:09;;;;;;;1.52;0.82;;;;;;;;;;5058022;28;20151;-76
2023/07/30 11:54:37;;;;;;;0.82;0.82;;;;;;;;;;5055701;28;20052;-77
2023/07/30 11:57:05;;;;;;;1.00;0.90;;;;;;;;;;5057595;28;20052;-75
2023/07/30 11:59:32;;;;;;;7.20;1.70;;;;;;;;;;5059381;28;20063;-76
2023/07/30 12:02:00;;;;;;;154.50;5.63;;;;;;;;;;5063946;28;20041;-75
2023/07/30 12:04:31;;;;;;;5.43;1.90;;;;;;;;;;5062890;28;20044;-75
2023/07/30 12:07:01;;;;;;;3.53;1.88;;;;;;;;;;5068750;28;20048;-76
2023/07/30 12:09:30;;;;;;;2.67;1.15;;;;;;;;;;5067499;28;20072;-76
2023/07/30 12:11:59;;;;;;;2.28;1.50;;;;;;;;;;5066356;28;20057;-76
2023/07/30 12:14:30;;;;;;;5.85;1.30;;;;;;;;;;5068226;28;20075;-76
2023/07/30 12:16:58;;;;;;;1.63;1.27;;;;;;;;;;5069059;28;20090;-76
2023/07/30 12:19:26;;;;;;;1.23;1.10;;;;;;;;;;5067336;28;20036;-76
2023/07/30 12:21:53;;;;;;;4.20;1.25;;;;;;;;;;5069233;28;20098;-76
2023/07/30 12:24:22;;;;;;;5.72;1.70;;;;;;;;;;5067696;28;20803;-77
2023/07/30 12:26:49;;;;;;;1.27;1.02;;;;;;;;;;5068806;28;20049;-76
2023/07/30 12:29:20;;;;;;;3.65;1.42;;;;;;;;;;5067946;28;20048;-76
2023/07/30 12:31:48;;;;;;;1.05;1.05;;;;;;;;;;5068750;28;20049;-76
2023/07/30 12:34:15;;;;;;;2.25;1.17;;;;;;;;;;5065119;28;20040;-76
2023/07/30 12:36:43;;;;;;;1.75;1.23;;;;;;;;;;5066296;28;20048;-76
2023/07/30 12:39:10;;;;;;;0.95;0.93;;;;;;;;;;5067747;28;20052;-76
2023/07/30 12:41:38;;;;;;;3.13;1.38;;;;;;;;;;5066149;28;20131;-76
2023/07/30 12:44:06;;;;;;;3.67;1.13;;;;;;;;;;5069172;28;20090;-76
2023/07/30 12:46:33;;;;;;;2.55;1.40;;;;;;;;;;5066948;28;20051;-76
2023/07/30 12:49:04;;;;;;;3.08;1.10;;;;;;;;;;5065786;28;20056;-76
2023/07/30 12:51:32;;;;;;;1.15;1.15;;;;;;;;;;5068724;28;20079;-76
2023/07/30 12:54:00;;;;;;;3.08;1.52;;;;;;;;;;5064942;28;20051;-76
2023/07/30 12:56:28;;;;;;;1.90;1.42;;;;;;;;;;5066624;28;20079;-76
2023/07/30 12:58:55;;;;;;;3.25;1.70;;;;;;;;;;5068940;28;20057;-76
2023/07/30 13:01:23;;;;;;;2.83;1.52;;;;;;;;;;5069107;28;20052;-76
2023/07/30 13:03:54;;;;;;;3.75;1.90;;;;;;;;;;5069526;28;20486;-76
2023/07/30 13:06:21;;;;;;;2.50;1.80;;;;;;;;;;5068811;28;20051;-76
2023/07/30 13:08:49;;;;;;;2.47;2.10;;;;;;;;;;5064631;28;20056;-76
2023/07/30 13:11:16;;;;;;;3.92;1.73;;;;;;;;;;5062723;28;20056;-77
2023/07/30 13:13:44;;;;;;;1.50;1.40;;;;;;;;;;5062930;28;20456;-76
2023/07/30 13:16:11;;;;;;;1.60;1.50;;;;;;;;;;5062399;28;20134;-77
2023/07/30 13:18:39;;;;;;;1.50;1.30;;;;;;;;;;5061057;28;20040;-77
2023/07/30 13:21:06;;;;;;;1.38;1.27;;;;;;;;;;5061584;28;20044;-76
2023/07/30 13:23:34;;;;;;;1.77;1.30;;;;;;;;;;5061144;28;20056;-77
2023/07/30 13:26:02;;;;;;;1.42;1.33;;;;;;;;;;5058128;28;20137;-77
2023/07/30 13:28:30;;;;;;;1.23;1.13;;;;;;;;;;5056559;28;20075;-76
2023/07/30 13:30:57;;;;;;;3.25;1.30;;;;;;;;;;5054499;28;20090;-76
2023/07/30 13:33:25;;;;;;;1.63;1.23;;;;;;;;;;5057744;28;20044;-75
2023/07/30 13:35:52;;;;;;;2.17;1.33;;;;;;;;;;5059284;28;20828;-75
2023/07/30 13:38:21;;;;;;;1.42;1.20;;;;;;;;;;5053874;28;20076;-76
2023/07/30 13:40:49;;;;;;;1.25;1.20;;;;;;;;;;5041097;28;20466;-75
2023/07/30 13:43:16;;;;;;;1.70;1.60;;;;;;;;;;5053046;28;20052;-75
2023/07/30 13:45:43;;;;;;;3.88;1.60;;;;;;;;;;5059223;28;20064;-75
2023/07/30 13:48:12;;;;;;;2.67;1.38;;;;;;;;;;5062427;28;20108;-75
2023/07/30 13:50:40;;;;;;;1.50;1.50;;;;;;;;;;5044625;28;20101;-74
2023/07/30 13:53:07;;;;;;;1.55;1.45;;;;;;;;;;5056867;28;20051;-75
2023/07/30 13:55:35;;;;;;;1.48;1.42;;;;;;;;;;5061145;28;20208;-74
2023/07/30 13:58:03;;;;;;;1.70;1.60;;;;;;;;;;5059238;28;20051;-75
2023/07/30 14:00:31;;;;;;;1.80;1.48;;;;;;;;;;5054674;28;20123;-75
2023/07/30 14:03:01;;;;;;;1.70;1.60;;;;;;;;;;5058336;28;20040;-75
2023/07/30 14:05:29;;;;;;;1.77;1.67;;;;;;;;;;5060235;28;20063;-74
2023/07/30 14:07:56;;;;;;;1.55;1.55;;;;;;;;;;5043770;28;20264;-74
2023/07/30 14:10:24;;;;;;;2.70;1.60;;;;;;;;;;5062074;28;20121;-74
2023/07/30 14:12:52;;;;;;;2.03;1.90;;;;;;;;;;5055700;28;20048;-78
2023/07/30 14:15:20;;;;;;;1.90;1.80;;;;;;;;;;5061173;28;20494;-76
2023/07/30 14:17:52;;;;;;;2.75;1.67;;;;;;;;;;5061994;28;20059;-76
2023/07/30 14:20:28;;;;;;;1.30;1.30;;;;;;;;;;5044789;28;20070;-76
2023/07/30 14:22:55;;;;;;;1.65;1.55;;;;;;;;;;5061465;28;20268;-75
2023/07/30 14:25:23;;;;;;;1.65;1.52;;;;;;;;;;5060655;28;20221;-74
2023/07/30 14:27:50;;;;;;;1.30;1.30;;;;;;;;;;5043342;28;20056;-76
2023/07/30 14:30:18;;;;;;;1.42;1.33;;;;;;;;;;5058397;28;20051;-76
2023/07/30 14:32:45;;;;;;;1.42;1.23;;;;;;;;;;5055114;28;20526;-76
2023/07/30 14:35:13;;;;;;;1.50;1.40;;;;;;;;;;5057816;28;20102;-75
2023/07/30 14:37:40;;;;;;;1.65;1.30;;;;;;;;;;5058099;28;20045;-75
2023/07/30 14:40:08;;;;;;;1.42;1.35;;;;;;;;;;5062330;28;20052;-75
2023/07/30 14:42:35;;;;;;;0.90;0.90;;;;;;;;;;5065705;28;20127;-74
2023/07/30 14:45:03;;;;;;;1.75;1.10;;;;;;;;;;5064768;28;20041;-74
2023/07/30 14:47:31;;;;;;;1.00;1.00;;;;;;;;;;5065712;28;20418;-76
2023/07/30 14:49:59;;;;;;;2.80;1.00;;;;;;;;;;5066612;28;20043;-76